Time;durP1;ratioP1;P1;durP2;ratioP2;P2;SDS_P1;SDS_P2;PMS_P1;PMS_P2;Temp;Humidity;BMP_temperature;BMP_pressure;BME280_temperature;BME280_humidity;BME280_pressure;Samples;Min_cycle;Max_cycle;Signal;HPM_P1;HPM_P2
2023/06/04 00:02:20;;;;;;;8.45;2.72;;;11.90;87.70;;;;;;5014988;28;20061;-44
2023/06/04 00:04:49;;;;;;;11.57;3.30;;;11.90;87.90;;;;;;5015765;28;20091;-43
2023/06/04 00:07:19;;;;;;;6.30;3.03;;;11.90;88.00;;;;;;5015537;28;20456;-45
2023/06/04 00:09:46;;;;;;;7.70;3.05;;;11.90;88.30;;;;;;5015801;28;20355;-44
2023/06/04 00:12:13;;;;;;;6.68;3.00;;;11.90;88.40;;;;;;5015910;28;20693;-44
2023/06/04 00:14:42;;;;;;;7.38;2.97;;;11.90;88.60;;;;;;5014254;28;20049;-43
2023/06/04 00:17:10;;;;;;;8.05;2.63;;;11.90;88.60;;;;;;5015668;28;20148;-44
2023/06/04 00:19:41;;;;;;;12.85;3.33;;;11.90;88.90;;;;;;5015557;28;20029;-43
2023/06/04 00:22:07;;;;;;;10.75;3.10;;;11.90;89.00;;;;;;5015720;28;20033;-43
2023/06/04 00:24:35;;;;;;;8.43;3.75;;;11.90;89.20;;;;;;5015375;28;20045;-45
2023/06/04 00:27:02;;;;;;;8.75;3.88;;;11.90;89.20;;;;;;5014606;28;20454;-43
2023/06/04 00:29:29;;;;;;;7.93;3.03;;;11.90;89.50;;;;;;5015685;28;20033;-44
2023/06/04 00:31:56;;;;;;;9.15;2.80;;;11.90;89.60;;;;;;5015642;28;20034;-43
2023/06/04 00:34:25;;;;;;;11.38;4.38;;;11.90;89.70;;;;;;5015360;28;20069;-43
2023/06/04 00:36:52;;;;;;;6.00;3.67;;;11.90;89.70;;;;;;5015385;28;20025;-45
2023/06/04 00:39:21;;;;;;;12.75;4.07;;;11.90;89.80;;;;;;5015068;28;20253;-44
2023/06/04 00:41:48;;;;;;;7.43;3.35;;;11.90;89.90;;;;;;5015336;28;20080;-43
2023/06/04 00:44:15;;;;;;;9.90;4.65;;;11.90;89.90;;;;;;5015321;28;20048;-45
2023/06/04 00:46:45;;;;;;;7.22;3.47;;;11.90;90.00;;;;;;5014978;28;20026;-44
2023/06/04 00:49:12;;;;;;;;;;;11.90;90.10;;;;;;5015265;28;20017;-44
2023/06/04 00:51:41;;;;;;;13.15;3.47;;;11.90;90.00;;;;;;5013829;28;19969;-44
2023/06/04 00:54:08;;;;;;;9.32;4.10;;;11.90;90.00;;;;;;5034628;28;20030;-44
2023/06/04 00:56:38;;;;;;;11.55;3.85;;;11.90;90.10;;;;;;5034076;28;20040;-44
2023/06/04 00:59:08;;;;;;;6.65;3.47;;;11.90;90.10;;;;;;5027914;28;20029;-44
2023/06/04 01:02:07;;;;;;;8.13;3.33;;;11.90;90.20;;;;;;5012806;28;20038;-44
2023/06/04 01:04:41;;;;;;;18.73;3.80;;;11.90;90.30;;;;;;5014744;28;20026;-44
2023/06/04 01:07:09;;;;;;;6.50;2.85;;;11.90;90.30;;;;;;5013618;28;20030;-43
2023/06/04 01:09:37;;;;;;;11.40;3.08;;;11.80;90.40;;;;;;5014436;28;20033;-44
2023/06/04 01:12:07;;;;;;;9.00;3.75;;;11.80;90.40;;;;;;5014778;28;20081;-45
2023/06/04 01:14:37;;;;;;;9.55;4.22;;;11.80;90.50;;;;;;5014547;28;20056;-42
2023/06/04 01:17:37;;;;;;;9.77;3.67;;;11.90;90.60;;;;;;5014961;28;20029;-45
2023/06/04 01:20:32;;;;;;;10.07;3.35;;;11.90;90.60;;;;;;5014507;28;20049;-43
2023/06/04 01:23:42;;;;;;;12.80;3.92;;;11.80;90.60;;;;;;5029766;28;20030;-43
2023/06/04 01:26:10;;;;;;;7.68;4.05;;;11.80;90.70;;;;;;5014421;28;20335;-42
2023/06/04 01:28:37;;;;;;;10.00;3.60;;;11.90;90.60;;;;;;5013521;28;20036;-43
2023/06/04 01:31:08;;;;;;;12.02;3.33;;;11.90;90.70;;;;;;5013189;28;20030;-42
2023/06/04 01:33:36;;;;;;;8.70;3.35;;;11.90;90.70;;;;;;5029308;28;20163;-43
2023/06/04 01:36:03;;;;;;;10.55;3.47;;;11.90;90.70;;;;;;5032249;28;20025;-45
2023/06/04 01:38:29;;;;;;;10.00;3.40;;;11.90;90.70;;;;;;5014391;28;20026;-43
2023/06/04 01:40:57;;;;;;;7.85;3.40;;;11.80;90.70;;;;;;5015585;28;20164;-43
2023/06/04 01:43:24;;;;;;;7.13;3.08;;;11.90;90.80;;;;;;5034163;28;20348;-43
2023/06/04 01:45:51;;;;;;;11.07;3.40;;;11.90;90.70;;;;;;5033049;28;20029;-43
2023/06/04 01:48:17;;;;;;;10.05;3.78;;;11.90;90.70;;;;;;5013822;28;20379;-45
2023/06/04 01:50:44;;;;;;;9.85;3.50;;;11.80;90.60;;;;;;5027857;28;20113;-43
2023/06/04 01:53:11;;;;;;;7.97;2.90;;;11.80;90.50;;;;;;5013865;28;20022;-42
2023/06/04 01:55:38;;;;;;;6.57;2.80;;;11.80;90.50;;;;;;5013780;28;20053;-44
2023/06/04 01:58:04;;;;;;;10.82;3.47;;;11.80;90.40;;;;;;5028919;28;20037;-43
2023/06/04 02:00:31;;;;;;;12.10;3.35;;;11.70;90.30;;;;;;5013103;28;20022;-43
2023/06/04 02:03:00;;;;;;;6.65;2.67;;;11.70;90.30;;;;;;5012920;28;20080;-43
2023/06/04 02:05:27;;;;;;;10.05;3.38;;;11.70;90.20;;;;;;5012332;28;20050;-43
2023/06/04 02:07:57;;;;;;;10.70;4.28;;;11.60;90.10;;;;;;5015711;28;20060;-42
2023/06/04 02:10:27;;;;;;;10.02;2.92;;;11.60;90.10;;;;;;5032314;28;20108;-43
2023/06/04 02:13:03;;;;;;;8.48;3.20;;;11.60;90.00;;;;;;5032887;28;20112;-43
2023/06/04 02:15:31;;;;;;;7.15;3.03;;;11.60;90.10;;;;;;5033244;28;20380;-42
2023/06/04 02:18:12;;;;;;;10.80;3.05;;;11.60;90.10;;;;;;5018844;28;20126;-42
2023/06/04 02:20:39;;;;;;;6.47;3.58;;;11.50;90.00;;;;;;5013755;28;20026;-44
2023/06/04 02:23:06;;;;;;;15.68;3.80;;;11.50;90.00;;;;;;5013385;28;20041;-42
2023/06/04 02:25:32;;;;;;;8.85;3.22;;;11.50;90.10;;;;;;5012391;28;20061;-42
2023/06/04 02:27:59;;;;;;;8.10;3.13;;;11.50;90.10;;;;;;5013680;28;20030;-43
2023/06/04 02:30:26;;;;;;;11.82;3.08;;;11.50;90.10;;;;;;5027921;28;20332;-43
2023/06/04 02:32:54;;;;;;;10.10;3.13;;;11.50;90.20;;;;;;5015750;28;20034;-43
2023/06/04 02:35:23;;;;;;;9.30;3.55;;;11.50;90.30;;;;;;5013809;28;20058;-42
2023/06/04 02:37:51;;;;;;;11.40;3.60;;;11.60;90.30;;;;;;5013250;28;20018;-43
2023/06/04 02:40:18;;;;;;;9.00;3.63;;;11.60;90.40;;;;;;5013170;28;20025;-43
2023/06/04 02:42:45;;;;;;;9.10;3.80;;;11.60;90.50;;;;;;5013409;28;20068;-43
2023/06/04 02:45:11;;;;;;;8.57;3.45;;;11.60;90.70;;;;;;5013186;28;20056;-42
2023/06/04 02:47:38;;;;;;;12.60;4.13;;;11.60;90.60;;;;;;5012978;28;20061;-42
2023/06/04 02:50:06;;;;;;;12.68;3.42;;;11.70;90.70;;;;;;5013186;28;20076;-44
2023/06/04 02:52:32;;;;;;;11.73;3.40;;;11.70;90.60;;;;;;5013138;28;20041;-42
2023/06/04 02:55:02;;;;;;;12.68;3.70;;;11.70;90.80;;;;;;5012287;28;20026;-42
2023/06/04 02:57:30;;;;;;;9.63;3.55;;;11.70;90.80;;;;;;5013087;28;20030;-42
2023/06/04 02:59:59;;;;;;;12.77;3.78;;;11.60;90.70;;;;;;5013110;28;20034;-42
2023/06/04 03:02:26;;;;;;;6.78;3.75;;;11.60;90.70;;;;;;5012975;28;20371;-44
2023/06/04 03:04:56;;;;;;;10.30;3.22;;;11.60;90.80;;;;;;5013098;28;20042;-42
2023/06/04 03:07:23;;;;;;;6.72;3.10;;;11.60;90.70;;;;;;5011701;28;20076;-44
2023/06/04 03:09:50;;;;;;;10.20;3.47;;;11.50;90.70;;;;;;5012752;28;20410;-42
2023/06/04 03:12:17;;;;;;;10.73;3.83;;;11.50;90.60;;;;;;5013009;28;20022;-42
2023/06/04 03:14:43;;;;;;;11.00;3.67;;;11.40;90.50;;;;;;5012913;28;20026;-43
2023/06/04 03:17:10;;;;;;;10.73;3.95;;;11.40;90.20;;;;;;5012039;28;20423;-42
2023/06/04 03:19:41;;;;;;;9.52;4.15;;;11.30;89.90;;;;;;5012892;28;20022;-42
2023/06/04 03:22:10;;;;;;;9.60;3.47;;;11.20;89.80;;;;;;5012812;28;20025;-41
2023/06/04 03:24:39;;;;;;;12.48;3.40;;;11.10;89.80;;;;;;5023475;28;20029;-43
2023/06/04 03:27:08;;;;;;;9.77;3.55;;;11.00;90.10;;;;;;5035918;28;20060;-42
2023/06/04 03:29:36;;;;;;;10.68;3.55;;;11.10;90.10;;;;;;5027749;28;20048;-42
2023/06/04 03:32:03;;;;;;;7.82;4.18;;;11.00;90.00;;;;;;5015911;28;20371;-42
2023/06/04 03:34:33;;;;;;;8.05;3.80;;;11.00;89.90;;;;;;5015734;28;20022;-42
2023/06/04 03:37:00;;;;;;;7.07;3.47;;;10.90;89.80;;;;;;5015831;28;20053;-41
2023/06/04 03:39:27;;;;;;;13.65;3.67;;;10.90;89.90;;;;;;5016165;28;20026;-42
2023/06/04 03:41:55;;;;;;;10.88;4.07;;;10.90;89.90;;;;;;5015307;28;20030;-42
2023/06/04 03:44:22;;;;;;;10.30;3.35;;;10.90;89.90;;;;;;5016196;28;20037;-42
2023/06/04 03:46:49;;;;;;;9.13;3.83;;;10.90;89.80;;;;;;5016279;28;20026;-44
2023/06/04 03:49:19;;;;;;;8.02;3.00;;;10.90;89.80;;;;;;5016023;28;20044;-42
2023/06/04 03:51:46;;;;;;;10.43;3.60;;;10.90;89.80;;;;;;5026138;28;20045;-42
2023/06/04 03:54:12;;;;;;;9.35;3.33;;;10.90;89.80;;;;;;5036108;28;20041;-43
2023/06/04 03:56:41;;;;;;;9.60;3.55;;;10.90;89.80;;;;;;5035055;28;20386;-42
2023/06/04 03:59:07;;;;;;;7.65;2.88;;;10.90;89.90;;;;;;5014860;28;20120;-42
2023/06/04 04:01:34;;;;;;;11.07;3.60;;;10.90;89.80;;;;;;5015989;28;20333;-41
2023/06/04 04:04:01;;;;;;;10.43;3.53;;;10.90;89.70;;;;;;5016177;28;20030;-42
2023/06/04 04:06:28;;;;;;;10.57;4.15;;;10.90;89.60;;;;;;5028352;28;20034;-41
2023/06/04 04:08:58;;;;;;;10.80;3.40;;;11.00;89.60;;;;;;5035278;28;20053;-42
2023/06/04 04:11:25;;;;;;;10.68;3.50;;;11.00;89.70;;;;;;5016167;28;20459;-41
2023/06/04 04:13:52;;;;;;;7.40;3.72;;;11.00;89.70;;;;;;5015608;28;20034;-42
2023/06/04 04:16:19;;;;;;;14.40;3.58;;;11.00;89.60;;;;;;5015708;28;20088;-42
2023/06/04 04:18:46;;;;;;;10.75;3.08;;;11.00;89.70;;;;;;5015492;28;20057;-41
2023/06/04 04:21:12;;;;;;;10.98;3.30;;;11.10;89.80;;;;;;5014573;28;20116;-42
2023/06/04 04:23:41;;;;;;;7.30;3.33;;;11.10;89.90;;;;;;5032336;28;20402;-42
2023/06/04 04:26:09;;;;;;;8.07;3.63;;;11.20;90.10;;;;;;5035177;28;20435;-42
2023/06/04 04:28:37;;;;;;;7.80;3.88;;;11.30;90.10;;;;;;5035221;28;20095;-41
2023/06/04 04:31:04;;;;;;;10.75;3.80;;;11.40;90.10;;;;;;5032593;28;20152;-42
2023/06/04 04:33:36;;;;;;;9.10;3.33;;;11.50;89.90;;;;;;5015407;28;20105;-42
2023/06/04 04:36:03;;;;;;;11.77;3.50;;;11.70;89.80;;;;;;5014957;28;20105;-42
2023/06/04 04:38:33;;;;;;;8.10;2.95;;;11.80;89.60;;;;;;5022379;28;20029;-42
2023/06/04 04:41:00;;;;;;;10.40;2.92;;;11.90;89.50;;;;;;5035164;28;20509;-41
2023/06/04 04:43:32;;;;;;;14.95;3.85;;;12.10;89.10;;;;;;5035167;28;20025;-42
2023/06/04 04:45:59;;;;;;;9.70;3.03;;;12.20;89.20;;;;;;5034537;28;20497;-42
2023/06/04 04:48:25;;;;;;;8.27;2.90;;;12.40;89.00;;;;;;5021547;28;20041;-41
2023/06/04 04:50:53;;;;;;;10.10;3.25;;;12.50;88.70;;;;;;5016160;28;20030;-43
2023/06/04 04:53:21;;;;;;;10.40;3.45;;;12.50;88.60;;;;;;5034905;28;20037;-43
2023/06/04 04:55:48;;;;;;;9.55;3.40;;;12.50;88.80;;;;;;5034825;28;20037;-42
2023/06/04 04:58:15;;;;;;;11.70;3.75;;;12.50;88.90;;;;;;5033838;28;20366;-42
2023/06/04 05:00:42;;;;;;;11.55;2.72;;;12.50;89.10;;;;;;5015420;28;20029;-41
2023/06/04 05:03:09;;;;;;;12.77;3.53;;;12.60;89.20;;;;;;5014922;28;20068;-43
2023/06/04 05:05:37;;;;;;;10.40;3.38;;;12.60;89.20;;;;;;5014648;28;20038;-42
2023/06/04 05:08:04;;;;;;;11.48;3.67;;;12.70;89.10;;;;;;5014345;28;20053;-43
2023/06/04 05:10:35;;;;;;;9.02;3.15;;;12.70;89.00;;;;;;5015113;28;20053;-43
2023/06/04 05:13:04;;;;;;;9.43;3.17;;;12.80;88.90;;;;;;5014700;28;20032;-42
2023/06/04 05:15:30;;;;;;;10.23;3.20;;;12.80;88.60;;;;;;5014575;28;20084;-41
2023/06/04 05:18:00;;;;;;;15.75;3.78;;;12.80;88.40;;;;;;5013345;28;20383;-42
2023/06/04 05:20:27;;;;;;;9.13;3.13;;;12.90;88.10;;;;;;5014731;28;20106;-43
2023/06/04 05:22:55;;;;;;;11.68;3.13;;;12.90;87.90;;;;;;5013735;28;20040;-42
2023/06/04 05:25:21;;;;;;;7.97;2.78;;;12.90;87.80;;;;;;5014444;28;20049;-44
2023/06/04 05:27:49;;;;;;;9.63;2.70;;;12.90;87.40;;;;;;5014657;28;20101;-45
2023/06/04 05:30:16;;;;;;;10.82;3.15;;;12.90;87.10;;;;;;5014314;28;20029;-43
2023/06/04 05:32:45;;;;;;;8.40;2.92;;;12.90;86.40;;;;;;5014193;28;20045;-42
2023/06/04 05:35:12;;;;;;;8.40;2.77;;;12.90;86.10;;;;;;5014621;28;20033;-47
2023/06/04 05:37:41;;;;;;;10.57;3.03;;;12.90;86.10;;;;;;5014199;28;20045;-47
2023/06/04 05:40:09;;;;;;;6.20;2.00;;;13.00;86.60;;;;;;5014187;28;20467;-43
2023/06/04 05:42:37;;;;;;;7.07;2.90;;;13.10;86.40;;;;;;5014499;28;20522;-43
2023/06/04 05:45:05;;;;;;;10.98;2.88;;;13.10;86.00;;;;;;5014013;28;20033;-42
2023/06/04 05:47:32;;;;;;;11.63;3.40;;;13.20;86.00;;;;;;5023735;28;20033;-43
2023/06/04 05:49:59;;;;;;;11.65;2.70;;;13.30;85.70;;;;;;5033726;28;20451;-43
2023/06/04 05:52:26;;;;;;;12.65;3.67;;;13.50;85.10;;;;;;5033723;28;20033;-46
2023/06/04 05:54:53;;;;;;;6.50;2.72;;;13.80;84.10;;;;;;5033626;28;20032;-45
2023/06/04 05:57:19;;;;;;;8.80;1.98;;;14.10;83.00;;;;;;5017859;28;20033;-43
2023/06/04 05:59:46;;;;;;;5.13;1.92;;;14.30;82.30;;;;;;5012622;28;20025;-42
2023/06/04 06:02:14;;;;;;;7.72;2.72;;;14.40;81.20;;;;;;5014042;28;20029;-46
2023/06/04 06:04:41;;;;;;;6.60;2.17;;;14.60;81.00;;;;;;5013975;28;20021;-46
2023/06/04 06:07:07;;;;;;;7.53;2.17;;;14.80;80.50;;;;;;5013534;28;20348;-44
2023/06/04 06:09:35;;;;;;;6.88;2.60;;;14.90;79.60;;;;;;5013662;28;20392;-43
2023/06/04 06:12:02;;;;;;;7.93;2.50;;;14.90;78.50;;;;;;5013302;28;20080;-44
2023/06/04 06:14:29;;;;;;;9.00;3.22;;;14.80;78.60;;;;;;5012829;28;20029;-44
2023/06/04 06:16:56;;;;;;;9.35;2.95;;;14.90;78.10;;;;;;5013136;28;20072;-44
2023/06/04 06:19:23;;;;;;;6.60;2.55;;;15.00;78.30;;;;;;5012745;28;20022;-44
2023/06/04 06:21:49;;;;;;;5.70;1.95;;;15.00;77.40;;;;;;5012738;28;20029;-44
2023/06/04 06:24:15;;;;;;;5.22;1.75;;;14.90;77.20;;;;;;5013302;28;20080;-44
2023/06/04 06:26:41;;;;;;;5.72;2.25;;;15.20;77.00;;;;;;5013505;28;20026;-44
2023/06/04 06:29:08;;;;;;;10.05;2.85;;;15.20;76.90;;;;;;5013234;28;20044;-45
2023/06/04 06:31:36;;;;;;;6.40;2.40;;;15.30;76.40;;;;;;5007084;28;20037;-45
2023/06/04 06:34:03;;;;;;;8.37;2.33;;;15.20;76.80;;;;;;5012815;28;20026;-45
2023/06/04 06:36:32;;;;;;;7.22;2.78;;;15.20;75.90;;;;;;5012879;28;20025;-46
2023/06/04 06:38:59;;;;;;;7.97;2.63;;;15.30;75.80;;;;;;5012848;28;20037;-46
2023/06/04 06:41:30;;;;;;;7.35;2.33;;;15.30;74.00;;;;;;5012501;28;20068;-46
2023/06/04 06:43:56;;;;;;;8.95;2.53;;;14.90;74.50;;;;;;5013324;28;20402;-45
2023/06/04 06:46:23;;;;;;;7.47;2.05;;;15.00;74.40;;;;;;5013957;28;20025;-44
2023/06/04 06:48:51;;;;;;;5.43;2.13;;;15.10;74.80;;;;;;5031768;28;20037;-45
2023/06/04 06:51:18;;;;;;;6.50;2.58;;;15.20;75.00;;;;;;5033010;28;20035;-45
2023/06/04 06:53:44;;;;;;;5.30;2.00;;;15.10;74.70;;;;;;5019867;28;20034;-45
2023/06/04 06:56:09;;;;;;;16.08;2.55;;;15.20;74.30;;;;;;5012316;28;20033;-45
2023/06/04 06:58:36;;;;;;;6.43;1.80;;;15.20;73.80;;;;;;5012934;28;20033;-45
2023/06/04 07:01:05;;;;;;;9.18;2.15;;;15.30;74.10;;;;;;5015397;28;20719;-46
2023/06/04 07:03:31;;;;;;;6.20;2.30;;;15.40;74.30;;;;;;5036722;28;20037;-45
2023/06/04 07:05:59;;;;;;;6.47;2.05;;;15.50;73.10;;;;;;5019456;28;20040;-44
2023/06/04 07:08:25;;;;;;;7.90;2.45;;;15.70;73.30;;;;;;5036516;28;20077;-45
2023/06/04 07:10:55;;;;;;;6.55;2.00;;;15.90;73.40;;;;;;5023694;28;20034;-45
2023/06/04 07:13:22;;;;;;;6.30;1.73;;;16.00;72.20;;;;;;5016922;28;20041;-45
2023/06/04 07:15:49;;;;;;;8.55;2.17;;;16.00;69.90;;;;;;5016874;28;20045;-45
2023/06/04 07:18:15;;;;;;;6.00;1.88;;;16.00;68.60;;;;;;5016699;28;20025;-47
2023/06/04 07:20:42;;;;;;;8.48;2.25;;;16.20;69.50;;;;;;5016831;28;20030;-45
2023/06/04 07:23:09;;;;;;;8.95;2.03;;;16.40;69.60;;;;;;5016924;28;20096;-46
2023/06/04 07:25:35;;;;;;;7.95;1.77;;;16.60;68.30;;;;;;5016630;28;20123;-45
2023/06/04 07:28:03;;;;;;;5.80;2.50;;;17.10;67.30;;;;;;5016730;28;20030;-44
2023/06/04 07:30:33;;;;;;;6.20;2.13;;;17.40;65.60;;;;;;5016496;28;20391;-46
2023/06/04 07:33:02;;;;;;;6.47;2.08;;;17.60;64.20;;;;;;5016408;28;20034;-47
2023/06/04 07:35:30;;;;;;;5.50;2.00;;;17.80;63.20;;;;;;5016657;28;20037;-46
2023/06/04 07:37:57;;;;;;;5.35;2.10;;;18.00;62.00;;;;;;5016579;28;20038;-46
2023/06/04 07:40:26;;;;;;;5.53;2.03;;;18.30;61.40;;;;;;5016217;28;20057;-46
2023/06/04 07:42:53;;;;;;;5.97;1.85;;;18.30;58.90;;;;;;5031715;28;20028;-46
2023/06/04 07:45:21;;;;;;;4.95;1.80;;;18.50;60.40;;;;;;5016518;28;20044;-46
2023/06/04 07:47:47;;;;;;;4.97;1.73;;;18.80;59.90;;;;;;5016344;28;20033;-45
2023/06/04 07:50:14;;;;;;;7.43;2.58;;;18.90;58.30;;;;;;5016462;28;20397;-47
2023/06/04 07:52:40;;;;;;;5.57;2.17;;;19.40;58.00;;;;;;5016594;28;20034;-49
2023/06/04 07:55:08;;;;;;;3.60;1.63;;;19.40;57.40;;;;;;5015140;28;20321;-45
2023/06/04 07:57:35;;;;;;;6.22;2.28;;;19.60;56.70;;;;;;5015020;28;20033;-46
2023/06/04 08:00:04;;;;;;;5.72;2.35;;;19.50;56.10;;;;;;5015920;28;20029;-45
2023/06/04 08:02:31;;;;;;;6.20;2.13;;;19.60;57.10;;;;;;5015712;28;20076;-46
2023/06/04 08:04:58;;;;;;;6.63;2.10;;;19.60;54.80;;;;;;5015866;28;20034;-46
2023/06/04 08:07:24;;;;;;;6.55;1.88;;;19.60;55.40;;;;;;5014714;28;20049;-47
2023/06/04 08:09:51;;;;;;;5.40;2.22;;;19.50;54.60;;;;;;5014884;28;20036;-50
2023/06/04 08:12:18;;;;;;;9.40;2.40;;;19.30;55.90;;;;;;5015838;28;20052;-46
2023/06/04 08:14:45;;;;;;;4.97;2.30;;;19.40;56.90;;;;;;5015687;28;20356;-48
2023/06/04 08:17:15;;;;;;;4.88;1.90;;;19.20;59.10;;;;;;5015744;28;20021;-47
2023/06/04 08:19:41;;;;;;;6.35;2.10;;;19.50;56.50;;;;;;5015772;28;20341;-45
2023/06/04 08:22:11;;;;;;;4.40;1.88;;;19.90;55.70;;;;;;5015620;28;20155;-48
2023/06/04 08:24:39;;;;;;;;;;;19.90;56.20;;;;;;5016227;28;20021;-45
2023/06/04 08:27:08;;;;;;;6.65;1.90;;;19.70;57.10;;;;;;5015485;28;19917;-46
2023/06/04 08:29:35;;;;;;;3.95;1.67;;;19.90;56.50;;;;;;5015346;28;20049;-46
2023/06/04 08:32:03;;;;;;;8.70;2.88;;;20.30;57.10;;;;;;5015996;28;22059;-46
2023/06/04 08:34:31;;;;;;;5.30;1.83;;;20.20;55.20;;;;;;5014243;28;20605;-46
2023/06/04 08:36:57;;;;;;;6.60;2.45;;;20.20;54.90;;;;;;5015387;28;20034;-46
2023/06/04 08:39:24;;;;;;;4.07;1.70;;;20.40;54.90;;;;;;5014390;28;20040;-49
2023/06/04 08:41:54;;;;;;;5.78;1.92;;;20.40;56.60;;;;;;5031018;28;20033;-46
2023/06/04 08:44:20;;;;;;;;;;;20.00;57.10;;;;;;5026982;28;20038;-46
2023/06/04 08:46:51;;;;;;;7.72;1.80;;;20.10;55.90;;;;;;5015598;28;20389;-45
2023/06/04 08:49:20;;;;;;;4.47;1.50;;;20.40;57.00;;;;;;5015249;28;20053;-48
2023/06/04 08:51:48;;;;;;;8.50;2.65;;;20.20;55.50;;;;;;5015216;28;20399;-46
2023/06/04 08:54:15;;;;;;;6.95;2.38;;;20.20;54.80;;;;;;5015145;28;20383;-46
2023/06/04 08:56:43;;;;;;;6.00;2.28;;;20.30;54.50;;;;;;5014207;28;20018;-45
2023/06/04 08:59:10;;;;;;;4.85;2.03;;;19.90;57.10;;;;;;5015095;28;20061;-46
2023/06/04 09:01:37;;;;;;;5.75;1.90;;;19.90;57.30;;;;;;5023609;28;20037;-46
2023/06/04 09:04:07;;;;;;;3.03;1.63;;;19.90;57.80;;;;;;5033689;28;20476;-46
2023/06/04 09:06:35;;;;;;;6.95;1.92;;;19.90;59.00;;;;;;5034651;28;20477;-47
2023/06/04 09:09:05;;;;;;;6.22;2.10;;;19.90;57.50;;;;;;5026590;28;20054;-48
2023/06/04 09:11:40;;;;;;;;;;;20.00;57.00;;;;;;5015125;28;20022;-46
2023/06/04 09:14:13;;;;;;;5.43;2.13;;;19.90;60.30;;;;;;5013294;28;19917;-46
2023/06/04 09:16:58;;;;;;;5.85;2.40;;;19.70;58.20;;;;;;5014185;28;20444;-48
2023/06/04 09:19:25;;;;;;;3.80;2.00;;;19.60;59.50;;;;;;5014345;28;20022;-46
2023/06/04 09:21:55;;;;;;;7.38;2.17;;;19.30;57.40;;;;;;5013847;28;20036;-48
2023/06/04 09:24:24;;;;;;;6.40;2.08;;;19.60;58.80;;;;;;5013331;28;20494;-46
2023/06/04 09:26:51;;;;;;;5.65;1.90;;;19.70;56.70;;;;;;5013652;28;20052;-46
2023/06/04 09:29:18;;;;;;;9.90;2.20;;;19.60;59.40;;;;;;5013878;28;20033;-46
2023/06/04 09:31:58;;;;;;;7.43;2.42;;;19.50;59.50;;;;;;5013038;28;20105;-46
2023/06/04 09:34:28;;;;;;;;;;;19.50;59.50;;;;;;5014489;28;20160;-46
2023/06/04 09:36:56;;;;;;;7.25;2.50;;;19.70;60.30;;;;;;5014468;28;19951;-47
2023/06/04 09:39:23;;;;;;;6.20;2.08;;;19.50;60.00;;;;;;5014178;28;20452;-47
2023/06/04 09:42:05;;;;;;;7.20;2.50;;;19.70;57.90;;;;;;5014272;28;20360;-47
2023/06/04 09:44:44;;;;;;;4.43;1.98;;;19.30;59.80;;;;;;5013512;28;20577;-50
2023/06/04 09:47:13;;;;;;;4.35;1.67;;;19.30;59.70;;;;;;5014289;28;20058;-46
2023/06/04 09:49:42;;;;;;;6.32;2.05;;;19.60;59.90;;;;;;5013918;28;20407;-46
2023/06/04 09:52:10;;;;;;;6.10;2.00;;;19.70;60.60;;;;;;5014073;28;20041;-46
2023/06/04 09:54:38;;;;;;;4.47;2.55;;;19.80;60.70;;;;;;5013891;28;20100;-46
2023/06/04 09:57:15;;;;;;;8.85;1.70;;;19.80;59.70;;;;;;5012911;28;20448;-46
2023/06/04 09:59:44;;;;;;;6.70;2.40;;;19.50;59.90;;;;;;5013050;28;20045;-48
2023/06/04 10:02:12;;;;;;;5.18;1.77;;;19.60;59.40;;;;;;5012945;28;20022;-49
2023/06/04 10:04:48;;;;;;;5.10;2.25;;;19.40;60.10;;;;;;5009915;28;20107;-46
2023/06/04 10:07:15;;;;;;;6.38;2.45;;;19.20;62.10;;;;;;4996012;28;20053;-46
2023/06/04 10:09:47;;;;;;;7.65;2.55;;;19.10;61.20;;;;;;5013817;28;20034;-46
2023/06/04 10:12:26;;;;;;;6.53;2.40;;;19.30;62.80;;;;;;5028794;28;20432;-46
2023/06/04 10:15:12;;;;;;;7.32;2.75;;;19.20;61.50;;;;;;5013492;28;20403;-47
2023/06/04 10:17:40;;;;;;;3.15;1.63;;;19.40;61.70;;;;;;5015972;28;20126;-47
2023/06/04 10:20:11;;;;;;;5.82;1.73;;;19.20;62.00;;;;;;5032174;28;20028;-45
2023/06/04 10:22:38;;;;;;;7.05;2.50;;;19.00;61.40;;;;;;5017865;28;20109;-46
2023/06/04 10:25:10;;;;;;;7.50;2.72;;;19.20;60.90;;;;;;5013614;28;20030;-48
2023/06/04 10:27:37;;;;;;;8.68;1.98;;;19.30;63.70;;;;;;5013407;28;20029;-47
2023/06/04 10:30:05;;;;;;;6.47;2.58;;;19.50;61.60;;;;;;5013558;28;20108;-47
2023/06/04 10:32:35;;;;;;;7.00;1.98;;;19.40;60.30;;;;;;5013779;28;20025;-48
2023/06/04 10:35:08;;;;;;;6.50;2.05;;;19.20;62.00;;;;;;5012546;28;20032;-47
2023/06/04 10:37:34;;;;;;;5.95;2.03;;;18.90;63.50;;;;;;5012903;28;20038;-46
2023/06/04 10:40:04;;;;;;;5.28;1.85;;;19.10;62.60;;;;;;5012457;28;20080;-46
2023/06/04 10:42:44;;;;;;;8.18;2.75;;;19.10;63.60;;;;;;5013511;28;20113;-46
2023/06/04 10:45:13;;;;;;;5.43;2.03;;;19.10;63.00;;;;;;5013349;28;20095;-46
2023/06/04 10:47:40;;;;;;;5.80;2.05;;;19.20;62.00;;;;;;5020379;28;20473;-47
2023/06/04 10:50:12;;;;;;;5.70;1.65;;;18.90;62.50;;;;;;5031997;28;20057;-46
2023/06/04 10:52:52;;;;;;;8.27;2.17;;;19.00;62.10;;;;;;5033137;28;20041;-47
2023/06/04 10:55:17;;;;;;;5.45;1.80;;;19.20;62.50;;;;;;5032087;28;20113;-47
2023/06/04 10:58:01;;;;;;;4.78;1.88;;;19.10;62.50;;;;;;5020278;28;20426;-47
2023/06/04 11:00:46;;;;;;;8.82;2.13;;;19.20;61.90;;;;;;5013113;28;20037;-47
2023/06/04 11:03:13;;;;;;;7.20;1.95;;;19.30;61.80;;;;;;5018078;28;20026;-48
2023/06/04 11:05:58;;;;;;;4.70;1.95;;;19.20;62.90;;;;;;5012171;28;20026;-47
2023/06/04 11:08:29;;;;;;;5.43;1.70;;;19.00;64.60;;;;;;5023677;28;20068;-46
2023/06/04 11:10:57;;;;;;;5.93;2.25;;;18.90;64.50;;;;;;5032588;28;20048;-47
2023/06/04 11:13:26;;;;;;;7.28;2.47;;;18.90;61.10;;;;;;5023241;28;20034;-46
2023/06/04 11:15:52;;;;;;;;;;;19.00;64.90;;;;;;5013266;28;20044;-47
2023/06/04 11:18:21;;;;;;;6.63;2.83;;;19.00;61.70;;;;;;5012964;28;19909;-47
2023/06/04 11:21:01;;;;;;;6.70;1.98;;;19.10;63.50;;;;;;5012748;28;20045;-46
2023/06/04 11:23:30;;;;;;;5.75;3.10;;;19.20;61.90;;;;;;5041825;28;20025;-46
2023/06/04 11:26:01;;;;;;;9.77;2.58;;;19.10;60.10;;;;;;5032707;28;20072;-47
2023/06/04 11:28:28;;;;;;;7.32;2.33;;;18.90;64.60;;;;;;5030976;28;20043;-47
2023/06/04 11:31:02;;;;;;;5.53;2.10;;;18.90;65.30;;;;;;5028203;28;20057;-47
2023/06/04 11:33:30;;;;;;;4.93;2.40;;;18.90;63.50;;;;;;5028327;28;20040;-47
2023/06/04 11:36:00;;;;;;;7.00;2.53;;;18.80;63.50;;;;;;5012567;28;20034;-47
2023/06/04 11:38:26;;;;;;;7.25;2.40;;;18.60;64.40;;;;;;5023956;28;20605;-46
2023/06/04 11:41:05;;;;;;;8.32;2.75;;;18.40;64.20;;;;;;5031571;28;20079;-45
2023/06/04 11:43:33;;;;;;;6.60;2.05;;;18.40;66.90;;;;;;5014309;28;20435;-48
2023/06/04 11:46:06;;;;;;;6.13;1.90;;;18.60;64.90;;;;;;5013570;28;20089;-46
2023/06/04 11:48:33;;;;;;;7.45;2.42;;;18.40;63.50;;;;;;5016314;28;20106;-47
2023/06/04 11:51:07;;;;;;;8.65;2.15;;;18.40;64.60;;;;;;5015921;28;20030;-48
2023/06/04 11:53:36;;;;;;;8.25;2.10;;;18.50;62.40;;;;;;5015343;28;20034;-46
2023/06/04 11:56:04;;;;;;;5.97;2.30;;;18.50;63.90;;;;;;5016215;28;20030;-47
2023/06/04 11:58:32;;;;;;;6.82;1.80;;;18.40;63.70;;;;;;5016057;28;20030;-46
2023/06/04 12:00:59;;;;;;;7.60;2.95;;;18.40;67.10;;;;;;5015341;28;20022;-46
2023/06/04 12:03:37;;;;;;;10.43;2.38;;;18.30;64.70;;;;;;5023229;28;20435;-47
2023/06/04 12:06:33;;;;;;;6.20;1.95;;;18.30;63.40;;;;;;5035941;28;20447;-47
2023/06/04 12:09:00;;;;;;;8.45;2.70;;;18.40;64.10;;;;;;5035984;28;20045;-45
2023/06/04 12:11:34;;;;;;;7.70;2.28;;;18.30;63.20;;;;;;5035773;28;20103;-46
2023/06/04 12:14:07;;;;;;;6.70;1.92;;;18.40;63.30;;;;;;5035309;28;20538;-47
2023/06/04 12:16:33;;;;;;;5.88;2.58;;;18.10;63.80;;;;;;5024706;28;20550;-46
2023/06/04 12:19:11;;;;;;;7.65;3.00;;;18.20;63.60;;;;;;5015885;28;20026;-46
2023/06/04 12:21:41;;;;;;;5.75;2.38;;;18.20;62.20;;;;;;5015714;28;20017;-46
2023/06/04 12:24:26;;;;;;;5.93;1.92;;;17.90;62.90;;;;;;5014628;28;20037;-47
2023/06/04 12:27:11;;;;;;;6.00;2.10;;;17.70;66.40;;;;;;5014987;28;20025;-47
2023/06/04 12:29:41;;;;;;;3.90;1.52;;;17.90;63.70;;;;;;5015696;28;20061;-45
2023/06/04 12:32:13;;;;;;;8.65;2.35;;;17.70;64.00;;;;;;5015557;28;20041;-46
2023/06/04 12:34:42;;;;;;;8.32;2.63;;;17.80;65.10;;;;;;5015422;28;20041;-46
2023/06/04 12:37:08;;;;;;;7.85;2.35;;;17.90;63.90;;;;;;5015446;28;20101;-46
2023/06/04 12:39:38;;;;;;;5.47;2.33;;;17.90;66.10;;;;;;5015499;28;20117;-46
2023/06/04 12:42:08;;;;;;;7.55;2.15;;;18.00;62.50;;;;;;5014938;28;20525;-47
2023/06/04 12:44:41;;;;;;;4.57;1.70;;;18.20;62.50;;;;;;5034247;28;20038;-48
2023/06/04 12:47:11;;;;;;;6.05;2.40;;;18.10;63.80;;;;;;5034729;28;20044;-46
2023/06/04 12:49:40;;;;;;;5.40;2.42;;;18.10;61.90;;;;;;5033833;28;20029;-46
2023/06/04 12:52:13;;;;;;;4.85;1.75;;;18.00;63.90;;;;;;5013759;28;20037;-46
2023/06/04 12:54:39;;;;;;;7.07;2.83;;;18.10;61.40;;;;;;5015346;28;20045;-48
2023/06/04 12:57:07;;;;;;;4.85;2.25;;;17.80;61.20;;;;;;5014512;28;20026;-46